createdAt,value
2023-01-15T00:02:25.960Z,1.40
2023-01-15T00:04:53.325Z,1.55
2023-01-15T00:07:22.421Z,1.50
2023-01-15T00:09:50.558Z,0.98
2023-01-15T00:12:17.975Z,1.17
2023-01-15T00:14:46.131Z,0.73
2023-01-15T00:17:13.447Z,1.08
2023-01-15T00:19:40.848Z,1.00
2023-01-15T00:22:08.199Z,0.68
2023-01-15T00:24:54.182Z,2.58
2023-01-15T00:27:39.640Z,1.20
2023-01-15T00:30:10.640Z,1.50
2023-01-15T00:32:39.702Z,1.20
2023-01-15T00:35:08.396Z,0.57
2023-01-15T00:37:35.735Z,0.60
2023-01-15T00:40:04.634Z,1.05
2023-01-15T00:42:31.959Z,1.00
2023-01-15T00:44:59.446Z,1.10
2023-01-15T00:47:26.966Z,1.10
2023-01-15T00:49:54.347Z,1.88
2023-01-15T00:52:21.717Z,1.67
2023-01-15T00:54:49.114Z,1.08
2023-01-15T00:57:16.404Z,1.33
2023-01-15T00:59:43.767Z,0.70
2023-01-15T01:02:11.157Z,1.13
2023-01-15T01:04:39.079Z,1.25
2023-01-15T01:07:07.031Z,1.60
2023-01-15T01:09:34.442Z,1.58
2023-01-15T01:12:02.162Z,1.20
2023-01-15T01:14:29.608Z,0.82
2023-01-15T01:16:57.178Z,1.35
2023-01-15T01:19:25.345Z,1.13
2023-01-15T01:21:52.918Z,1.02
2023-01-15T01:24:23.117Z,0.63
2023-01-15T01:26:52.807Z,0.93
2023-01-15T01:29:23.706Z,1.13
2023-01-15T01:31:51.586Z,0.98
2023-01-15T01:34:19.534Z,0.90
2023-01-15T01:36:47.159Z,1.20
2023-01-15T01:39:18.937Z,0.90
2023-01-15T01:41:47.012Z,1.10
2023-01-15T01:44:34.780Z,1.13
2023-01-15T01:47:05.281Z,0.88
2023-01-15T01:49:35.109Z,1.25
2023-01-15T01:52:07.162Z,1.17
2023-01-15T01:54:38.483Z,0.90
2023-01-15T01:57:08.680Z,1.40
2023-01-15T01:59:37.797Z,1.52
2023-01-15T02:02:05.746Z,1.13
2023-01-15T02:04:33.963Z,1.00
2023-01-15T02:07:01.605Z,0.95
2023-01-15T02:09:29.301Z,2.10
2023-01-15T02:12:06.481Z,1.15
2023-01-15T02:14:53.445Z,3.63
2023-01-15T02:17:45.443Z,1.38
2023-01-15T02:20:28.927Z,1.63
2023-01-15T02:23:27.674Z,1.13
2023-01-15T02:26:29.326Z,0.88
2023-01-15T02:28:59.506Z,1.08
2023-01-15T02:31:42.162Z,0.68
2023-01-15T02:34:20.466Z,1.45
2023-01-15T02:36:52.982Z,0.70
2023-01-15T02:39:29.188Z,1.50
2023-01-15T02:42:02.052Z,3.22
2023-01-15T02:44:38.877Z,0.95
2023-01-15T02:47:08.422Z,0.98
2023-01-15T02:49:37.746Z,0.90
2023-01-15T02:52:23.971Z,1.88
2023-01-15T02:55:01.658Z,0.47
2023-01-15T02:57:35.312Z,1.23
2023-01-15T03:00:07.777Z,2.33
2023-01-15T03:02:50.750Z,1.55
2023-01-15T03:05:21.315Z,0.60
2023-01-15T03:07:58.948Z,1.75
2023-01-15T03:10:50.692Z,0.80
2023-01-15T03:13:29.632Z,0.85
2023-01-15T03:16:37.428Z,1.52
2023-01-15T03:19:11.229Z,1.63
2023-01-15T03:21:50.441Z,1.17
2023-01-15T03:24:59.258Z,0.90
2023-01-15T03:27:29.063Z,0.80
2023-01-15T03:30:06.590Z,0.90
2023-01-15T03:32:34.205Z,0.93
2023-01-15T03:35:07.007Z,2.17
2023-01-15T03:37:37.250Z,1.10
2023-01-15T03:40:06.911Z,1.17
2023-01-15T03:43:10.779Z,1.50
2023-01-15T03:45:39.985Z,1.05
2023-01-15T03:48:22.392Z,1.20
2023-01-15T03:50:57.812Z,0.65
2023-01-15T03:53:43.570Z,0.77
2023-01-15T03:56:50.658Z,0.77
2023-01-15T03:59:24.712Z,1.10
2023-01-15T04:01:58.410Z,1.38
2023-01-15T04:04:27.725Z,1.35
2023-01-15T04:06:56.849Z,1.30
2023-01-15T04:09:24.756Z,1.35
2023-01-15T04:12:00.460Z,1.35
2023-01-15T04:14:31.919Z,1.27
2023-01-15T04:17:04.393Z,1.60
2023-01-15T04:19:31.878Z,0.90
2023-01-15T04:22:01.874Z,0.85
2023-01-15T04:24:29.292Z,1.27
2023-01-15T04:26:56.696Z,1.00
2023-01-15T04:29:24.115Z,1.42
2023-01-15T04:31:57.243Z,1.85
2023-01-15T04:34:26.829Z,1.27
2023-01-15T04:36:55.623Z,1.13
2023-01-15T04:39:23.182Z,1.45
2023-01-15T04:42:09.192Z,1.13
2023-01-15T04:44:37.473Z,0.90
2023-01-15T04:47:05.094Z,1.10
2023-01-15T04:49:33.041Z,1.40
2023-01-15T04:52:00.253Z,0.75
2023-01-15T04:54:27.674Z,1.60
2023-01-15T04:56:55.716Z,1.05
2023-01-15T04:59:26.884Z,1.77
2023-01-15T05:02:03.906Z,1.42
2023-01-15T05:04:34.140Z,1.27
2023-01-15T05:07:06.385Z,1.95
2023-01-15T05:09:34.144Z,1.48
2023-01-15T05:12:01.357Z,0.93
2023-01-15T05:14:28.848Z,1.98
2023-01-15T05:16:56.235Z,2.35
2023-01-15T05:19:23.547Z,1.40
2023-01-15T05:21:51.561Z,1.08
2023-01-15T05:24:19.716Z,1.65
2023-01-15T05:26:47.539Z,0.93
2023-01-15T05:29:15.029Z,1.02
2023-01-15T05:31:45.032Z,0.68
2023-01-15T05:34:13.099Z,1.35
2023-01-15T05:36:41.185Z,1.05
2023-01-15T05:39:08.735Z,0.70
2023-01-15T05:41:51.420Z,1.52
2023-01-15T05:44:27.159Z,1.50
2023-01-15T05:47:00.491Z,1.88
2023-01-15T05:49:31.178Z,0.65
2023-01-15T05:52:00.692Z,1.15
2023-01-15T05:54:32.816Z,1.42
2023-01-15T05:57:01.332Z,1.17
2023-01-15T05:59:30.334Z,0.82
2023-01-15T06:01:57.884Z,0.50
2023-01-15T06:04:25.858Z,0.73
2023-01-15T06:06:54.727Z,0.65
2023-01-15T06:09:23.321Z,0.85
2023-01-15T06:11:50.908Z,0.93
2023-01-15T06:14:18.257Z,0.88
2023-01-15T06:16:46.409Z,0.80
2023-01-15T06:19:14.574Z,1.08
2023-01-15T06:21:42.063Z,0.50
2023-01-15T06:24:10.122Z,1.05
2023-01-15T06:26:38.526Z,0.80
2023-01-15T06:29:05.953Z,0.80
2023-01-15T06:31:33.455Z,1.08
2023-01-15T06:34:00.850Z,0.65
2023-01-15T06:36:28.669Z,1.38
2023-01-15T06:38:56.515Z,0.95
2023-01-15T06:41:45.144Z,1.15
2023-01-15T06:44:36.439Z,0.63
2023-01-15T06:47:24.236Z,0.68
2023-01-15T06:49:57.548Z,0.70
2023-01-15T06:52:26.443Z,0.75
2023-01-15T06:54:54.201Z,1.23
2023-01-15T06:57:21.871Z,0.90
2023-01-15T06:59:50.182Z,0.75
2023-01-15T07:02:18.447Z,1.27
2023-01-15T07:04:46.732Z,0.80
2023-01-15T07:07:18.837Z,2.20
2023-01-15T07:09:46.234Z,1.88
2023-01-15T07:12:13.687Z,0.65
2023-01-15T07:14:41.158Z,0.43
2023-01-15T07:17:09.268Z,0.95
2023-01-15T07:19:36.804Z,1.00
2023-01-15T07:22:04.770Z,0.55
2023-01-15T07:24:32.169Z,1.17
2023-01-15T07:26:59.878Z,1.20
2023-01-15T07:29:27.326Z,0.90
2023-01-15T07:31:55.029Z,2.38
2023-01-15T07:34:22.588Z,0.82
2023-01-15T07:36:49.860Z,0.93
2023-01-15T07:39:17.307Z,1.15
2023-01-15T07:42:03.843Z,0.90
2023-01-15T07:44:54.316Z,1.27
2023-01-15T07:47:43.039Z,1.15
2023-01-15T07:50:19.386Z,0.80
2023-01-15T07:52:47.111Z,1.17
2023-01-15T07:55:15.101Z,1.17
2023-01-15T07:57:43.292Z,1.75
2023-01-15T08:00:14.189Z,1.75
2023-01-15T08:02:41.766Z,1.70
2023-01-15T08:05:09.890Z,1.15
2023-01-15T08:07:39.096Z,1.10
2023-01-15T08:10:07.446Z,1.77
2023-01-15T08:12:55.139Z,1.23
2023-01-15T08:15:24.272Z,2.05
2023-01-15T08:17:52.049Z,1.70
2023-01-15T08:20:26.087Z,1.23
2023-01-15T08:22:54.087Z,1.38
2023-01-15T08:25:23.782Z,1.70
2023-01-15T08:27:52.211Z,1.05
2023-01-15T08:30:23.813Z,1.35
2023-01-15T08:32:51.403Z,1.85
2023-01-15T08:35:18.754Z,1.00
2023-01-15T08:37:46.065Z,2.22
2023-01-15T08:40:14.093Z,1.35
2023-01-15T08:42:41.448Z,1.17
2023-01-15T08:45:09.329Z,1.33
2023-01-15T08:47:37.335Z,1.75
2023-01-15T08:50:06.572Z,1.73
2023-01-15T08:52:33.985Z,0.98
2023-01-15T08:55:01.239Z,1.27
2023-01-15T08:57:28.991Z,1.17
2023-01-15T08:59:56.196Z,1.48
2023-01-15T09:02:23.628Z,1.98
2023-01-15T09:04:52.600Z,1.42
2023-01-15T09:07:20.078Z,1.95
2023-01-15T09:09:47.523Z,1.23
2023-01-15T09:12:14.945Z,1.95
2023-01-15T09:14:58.120Z,1.42
2023-01-15T09:17:29.257Z,0.95
2023-01-15T09:19:56.933Z,2.75
2023-01-15T09:22:25.332Z,1.40
2023-01-15T09:24:53.096Z,1.65
2023-01-15T09:27:20.311Z,2.97
2023-01-15T09:29:47.616Z,1.17
2023-01-15T09:32:15.083Z,3.38
2023-01-15T09:34:42.416Z,1.42
2023-01-15T09:37:10.169Z,2.67
2023-01-15T09:39:38.518Z,1.42
2023-01-15T09:42:16.251Z,1.60
2023-01-15T09:44:57.327Z,1.95
2023-01-15T09:47:41.553Z,1.10
2023-01-15T09:50:42.647Z,1.50
2023-01-15T09:53:19.831Z,1.38
2023-01-15T09:58:20.494Z,0.90
2023-01-15T10:00:52.329Z,1.52
2023-01-15T10:03:57.152Z,1.27
2023-01-15T10:06:28.015Z,1.20
2023-01-15T10:09:10.754Z,1.30
2023-01-15T10:12:06.932Z,1.35
2023-01-15T10:14:43.642Z,1.77
2023-01-15T10:17:28.611Z,1.10
2023-01-15T10:19:57.759Z,1.33
2023-01-15T10:23:20.241Z,1.23
2023-01-15T10:25:55.046Z,3.13
2023-01-15T10:28:28.838Z,1.48
2023-01-15T10:30:59.944Z,1.02
2023-01-15T10:33:56.264Z,1.55
2023-01-15T10:37:11.447Z,6.07
2023-01-15T10:39:49.779Z,1.85
2023-01-15T10:42:32.763Z,2.45
2023-01-15T10:45:18.923Z,3.17
2023-01-15T10:47:51.716Z,1.10
2023-01-15T10:50:22.672Z,2.15
2023-01-15T10:53:02.478Z,1.92
2023-01-15T10:55:41.165Z,1.48
2023-01-15T10:58:35.298Z,1.35
2023-01-15T11:01:13.222Z,2.35
2023-01-15T11:03:43.423Z,2.58
2023-01-15T11:06:19.278Z,1.52
2023-01-15T11:09:12.232Z,2.05
2023-01-15T11:12:12.313Z,2.03
2023-01-15T11:15:00.978Z,2.25
2023-01-15T11:17:56.677Z,2.88
2023-01-15T11:20:37.573Z,1.70
2023-01-15T11:23:11.381Z,2.40
2023-01-15T11:25:47.514Z,4.25
2023-01-15T11:28:15.599Z,3.22
2023-01-15T11:30:52.261Z,1.77
2023-01-15T11:33:25.122Z,1.75
2023-01-15T11:35:59.443Z,2.08
2023-01-15T11:38:43.352Z,3.88
2023-01-15T11:41:55.787Z,3.20
2023-01-15T11:44:42.441Z,1.30
2023-01-15T11:47:36.017Z,1.23
2023-01-15T11:50:22.569Z,2.83
2023-01-15T11:52:55.032Z,2.22
2023-01-15T11:55:25.864Z,2.38
2023-01-15T11:57:55.421Z,2.47
2023-01-15T12:00:34.709Z,2.03
2023-01-15T12:03:14.163Z,1.30
2023-01-15T12:05:48.101Z,2.95
2023-01-15T12:08:32.143Z,3.83
2023-01-15T12:11:26.287Z,3.85
2023-01-15T12:14:23.273Z,2.88
2023-01-15T12:17:12.843Z,3.20
2023-01-15T12:20:03.616Z,5.47
2023-01-15T12:22:48.959Z,3.95
2023-01-15T12:25:20.544Z,3.35
2023-01-15T12:27:52.282Z,1.70
2023-01-15T12:30:36.224Z,2.05
2023-01-15T12:33:32.116Z,1.52
2023-01-15T12:36:41.646Z,1.08
2023-01-15T12:39:43.323Z,1.20
2023-01-15T12:42:37.698Z,1.40
2023-01-15T12:45:16.134Z,1.27
2023-01-15T12:47:52.061Z,2.65
2023-01-15T12:50:38.149Z,1.45
2023-01-15T12:53:39.592Z,1.20
2023-01-15T12:56:36.469Z,1.98
2023-01-15T12:59:28.728Z,3.15
2023-01-15T13:02:20.617Z,3.85
2023-01-15T13:05:02.743Z,2.60
2023-01-15T13:07:39.421Z,2.28
2023-01-15T13:10:19.501Z,1.55
2023-01-15T13:12:47.026Z,3.35
2023-01-15T13:15:17.700Z,2.47
2023-01-15T13:18:06.685Z,2.97
2023-01-15T13:20:48.178Z,2.55
2023-01-15T13:23:44.244Z,2.40
2023-01-15T13:26:20.029Z,2.58
2023-01-15T13:28:53.242Z,2.88
2023-01-15T13:31:46.101Z,2.63
2023-01-15T13:34:30.582Z,1.40
2023-01-15T13:37:23.433Z,0.93
2023-01-15T13:39:53.819Z,3.00
2023-01-15T13:42:32.023Z,2.38
2023-01-15T13:45:26.688Z,2.20
2023-01-15T13:48:05.724Z,2.17
2023-01-15T13:50:36.193Z,1.40
2023-01-15T13:53:17.719Z,1.70
2023-01-15T13:55:53.655Z,1.77
2023-01-15T13:58:30.060Z,2.05
2023-01-15T14:01:20.813Z,1.97
2023-01-15T14:04:03.158Z,3.22
2023-01-15T14:06:43.877Z,1.95
2023-01-15T14:09:18.699Z,3.08
2023-01-15T14:12:01.348Z,6.30
2023-01-15T14:14:46.781Z,1.83
2023-01-15T14:17:31.561Z,2.13
2023-01-15T14:20:22.180Z,1.48
2023-01-15T14:23:36.649Z,2.72
2023-01-15T14:26:18.828Z,3.03
2023-01-15T14:29:13.617Z,2.05
2023-01-15T14:32:09.290Z,2.30
2023-01-15T14:34:36.864Z,1.52
2023-01-15T14:37:07.799Z,1.58
2023-01-15T14:39:42.899Z,1.80
2023-01-15T14:42:42.829Z,1.80
2023-01-15T14:45:13.262Z,2.78
2023-01-15T14:47:44.152Z,2.50
2023-01-15T14:50:38.871Z,1.33
2023-01-15T14:53:26.407Z,1.77
2023-01-15T14:56:04.278Z,2.35
2023-01-15T14:58:49.604Z,3.67
2023-01-15T15:01:17.488Z,1.67
2023-01-15T15:03:57.682Z,2.00
2023-01-15T15:06:27.548Z,1.33
2023-01-15T15:09:01.946Z,2.42
2023-01-15T15:12:08.116Z,1.38
2023-01-15T15:14:39.601Z,1.23
2023-01-15T15:17:32.789Z,1.60
2023-01-15T15:20:17.325Z,1.65
2023-01-15T15:22:48.100Z,1.42
2023-01-15T15:25:22.211Z,1.90
2023-01-15T15:27:49.666Z,1.27
2023-01-15T15:30:17.220Z,1.63
2023-01-15T15:32:45.240Z,1.42
2023-01-15T15:35:29.328Z,3.47
2023-01-15T15:38:02.613Z,3.72
2023-01-15T15:40:35.083Z,3.20
2023-01-15T15:43:36.450Z,1.50
2023-01-15T15:46:23.429Z,2.33
2023-01-15T15:48:57.217Z,1.90
2023-01-15T15:51:36.800Z,1.77
2023-01-15T15:54:04.926Z,1.77
2023-01-15T15:56:34.003Z,2.15
2023-01-15T15:59:02.056Z,1.92
2023-01-15T16:01:29.477Z,2.15
2023-01-15T16:03:57.447Z,2.67
2023-01-15T16:06:27.678Z,2.85
2023-01-15T16:09:01.660Z,6.47
2023-01-15T16:11:29.262Z,2.13
2023-01-15T16:13:59.075Z,9.82
2023-01-15T16:16:28.380Z,15.40
2023-01-15T16:18:58.544Z,4.03
2023-01-15T16:21:25.789Z,4.53
2023-01-15T16:24:07.508Z,4.05
2023-01-15T16:26:48.191Z,3.22
2023-01-15T16:29:25.213Z,2.88
2023-01-15T16:31:55.972Z,2.42
2023-01-15T16:34:27.651Z,1.55
2023-01-15T16:36:55.402Z,3.53
2023-01-15T16:39:36.027Z,7.50
2023-01-15T16:42:03.606Z,11.35
2023-01-15T16:44:46.762Z,2.85
2023-01-15T16:47:29.208Z,3.25
2023-01-15T16:50:22.495Z,4.75
2023-01-15T16:52:52.614Z,2.97
2023-01-15T16:55:41.008Z,2.47
2023-01-15T16:58:14.313Z,4.80
2023-01-15T17:00:53.458Z,4.13
2023-01-15T17:03:23.359Z,4.65
2023-01-15T17:05:56.531Z,4.00
2023-01-15T17:08:32.502Z,2.95
2023-01-15T17:11:02.294Z,2.15
2023-01-15T17:13:38.632Z,2.97
2023-01-15T17:16:21.804Z,3.38
2023-01-15T17:18:51.022Z,2.90
2023-01-15T17:21:23.556Z,3.13
2023-01-15T17:23:51.961Z,2.95
2023-01-15T17:26:22.544Z,3.80
2023-01-15T17:28:50.330Z,4.68
2023-01-15T17:31:25.088Z,2.30
2023-01-15T17:33:52.924Z,2.05
2023-01-15T17:36:20.707Z,3.60
2023-01-15T17:38:48.096Z,4.18
2023-01-15T17:41:18.153Z,5.78
2023-01-15T17:43:46.012Z,4.55
2023-01-15T17:46:13.882Z,4.28
2023-01-15T17:48:41.483Z,3.55
2023-01-15T17:51:14.503Z,3.97
2023-01-15T17:53:42.549Z,2.63
2023-01-15T17:56:28.638Z,2.88
2023-01-15T17:59:33.914Z,5.10
2023-01-15T18:02:20.891Z,4.25
2023-01-15T18:05:11.009Z,3.00
2023-01-15T18:07:42.011Z,5.03
2023-01-15T18:10:18.230Z,3.65
2023-01-15T18:12:45.548Z,3.73
2023-01-15T18:15:13.309Z,3.22
2023-01-15T18:17:40.663Z,2.33
2023-01-15T18:20:08.738Z,3.90
2023-01-15T18:22:36.148Z,4.40
2023-01-15T18:25:04.214Z,4.15
2023-01-15T18:27:31.661Z,4.13
2023-01-15T18:29:59.917Z,3.70
2023-01-15T18:32:33.515Z,3.67
2023-01-15T18:35:00.769Z,2.00
2023-01-15T18:37:28.087Z,2.25
2023-01-15T18:39:55.415Z,1.85
2023-01-15T18:42:41.331Z,2.25
2023-01-15T18:45:28.785Z,1.17
2023-01-15T18:47:56.412Z,2.28
2023-01-15T18:50:23.697Z,2.55
2023-01-15T18:52:51.172Z,2.03
2023-01-15T18:55:26.294Z,2.42
2023-01-15T18:57:54.461Z,2.22
2023-01-15T19:00:23.523Z,2.05
2023-01-15T19:02:51.467Z,2.22
2023-01-15T19:05:18.736Z,2.67
2023-01-15T19:07:46.539Z,1.73
2023-01-15T19:10:15.487Z,2.38
2023-01-15T19:12:44.537Z,1.70
2023-01-15T19:15:38.179Z,2.97
2023-01-15T19:18:24.419Z,2.60
2023-01-15T19:20:51.814Z,2.20
2023-01-15T19:23:20.845Z,2.20
2023-01-15T19:25:49.475Z,2.60
2023-01-15T19:28:19.867Z,2.92
2023-01-15T19:31:07.808Z,2.75
2023-01-15T19:33:35.819Z,3.40
2023-01-15T19:36:03.491Z,2.70
2023-01-15T19:38:30.782Z,2.88
2023-01-15T19:41:18.048Z,3.80
2023-01-15T19:44:03.950Z,3.33
2023-01-15T19:46:50.553Z,2.33
2023-01-15T19:49:40.767Z,2.83
2023-01-15T19:52:26.419Z,2.50
2023-01-15T19:54:57.176Z,3.45
2023-01-15T19:57:24.586Z,2.90
2023-01-15T19:59:52.054Z,2.75
2023-01-15T20:02:19.323Z,3.53
2023-01-15T20:04:47.415Z,1.77
2023-01-15T20:07:14.984Z,3.25
2023-01-15T20:09:43.961Z,3.35
2023-01-15T20:12:31.193Z,2.70
2023-01-15T20:14:58.648Z,2.72
2023-01-15T20:17:28.745Z,2.70
2023-01-15T20:19:56.303Z,2.83
2023-01-15T20:22:27.015Z,1.65
2023-01-15T20:24:54.718Z,2.35
2023-01-15T20:27:22.240Z,2.67
2023-01-15T20:30:04.698Z,2.17
2023-01-15T20:32:32.438Z,4.20
2023-01-15T20:34:59.889Z,1.67
2023-01-15T20:37:27.171Z,3.15
2023-01-15T20:39:54.576Z,3.13
2023-01-15T20:42:40.358Z,3.05
2023-01-15T20:45:11.027Z,3.17
2023-01-15T20:47:58.976Z,4.30
2023-01-15T20:50:29.328Z,2.80
2023-01-15T20:52:58.677Z,3.08
2023-01-15T20:55:45.698Z,3.20
2023-01-15T20:58:22.286Z,3.47
2023-01-15T21:00:50.794Z,3.13
2023-01-15T21:03:18.434Z,4.57
2023-01-15T21:05:46.700Z,3.13
2023-01-15T21:08:14.061Z,4.00
2023-01-15T21:10:41.739Z,3.45
2023-01-15T21:13:09.068Z,3.97
2023-01-15T21:15:36.434Z,3.50
2023-01-15T21:18:04.083Z,3.55
2023-01-15T21:20:31.447Z,3.33
2023-01-15T21:22:58.787Z,3.55
2023-01-15T21:25:26.570Z,3.78
2023-01-15T21:27:53.929Z,3.60
2023-01-15T21:30:21.723Z,4.22
2023-01-15T21:32:49.123Z,4.63
2023-01-15T21:35:16.588Z,3.17
2023-01-15T21:37:44.330Z,4.53
2023-01-15T21:40:12.230Z,3.60
2023-01-15T21:42:58.382Z,3.65
2023-01-15T21:45:26.268Z,3.58
2023-01-15T21:47:53.627Z,4.30
2023-01-15T21:50:21.865Z,4.00
2023-01-15T21:52:49.224Z,3.70
2023-01-15T21:55:17.002Z,4.38
2023-01-15T21:57:44.300Z,3.95
2023-01-15T22:00:12.987Z,3.72
2023-01-15T22:02:40.375Z,3.90
2023-01-15T22:05:08.528Z,3.78
2023-01-15T22:07:36.093Z,4.68
2023-01-15T22:10:04.078Z,3.38
2023-01-15T22:12:31.403Z,3.33
2023-01-15T22:14:59.237Z,4.10
2023-01-15T22:17:26.643Z,4.63
2023-01-15T22:19:53.988Z,4.07
2023-01-15T22:22:22.960Z,3.65
2023-01-15T22:24:50.576Z,4.53
2023-01-15T22:27:20.674Z,4.38
2023-01-15T22:29:48.033Z,4.13
2023-01-15T22:32:16.306Z,3.90
2023-01-15T22:34:44.349Z,4.57
2023-01-15T22:37:14.824Z,4.60
2023-01-15T22:39:42.238Z,3.88
2023-01-15T22:42:24.345Z,4.30
2023-01-15T22:44:52.216Z,3.42
2023-01-15T22:47:20.328Z,3.83
2023-01-15T22:49:47.695Z,4.75
2023-01-15T22:52:15.009Z,3.90
2023-01-15T22:54:44.923Z,3.53
2023-01-15T22:57:13.329Z,3.55
2023-01-15T22:59:40.791Z,4.32
2023-01-15T23:02:09.503Z,3.35
2023-01-15T23:04:36.943Z,4.55
2023-01-15T23:07:04.466Z,4.22
2023-01-15T23:09:31.821Z,3.58
2023-01-15T23:11:59.317Z,4.65
2023-01-15T23:14:27.329Z,3.25
2023-01-15T23:16:54.623Z,5.68
2023-01-15T23:19:22.855Z,4.25
2023-01-15T23:21:50.104Z,3.67
2023-01-15T23:24:17.873Z,3.38
2023-01-15T23:26:45.162Z,5.13
2023-01-15T23:29:12.515Z,3.40
2023-01-15T23:31:39.860Z,3.40
2023-01-15T23:34:07.288Z,3.22
2023-01-15T23:36:34.553Z,4.00
2023-01-15T23:39:02.216Z,4.07
2023-01-15T23:41:48.030Z,4.88
2023-01-15T23:44:38.441Z,3.15
2023-01-15T23:47:07.547Z,3.30
2023-01-15T23:49:35.603Z,3.42
2023-01-15T23:52:03.374Z,4.03
2023-01-15T23:54:31.530Z,3.60
2023-01-15T23:57:00.903Z,3.85
2023-01-15T23:59:28.710Z,3.10
